Time;durP1;ratioP1;P1;durP2;ratioP2;P2;SDS_P1;SDS_P2;PMS_P1;PMS_P2;Temp;Humidity;BMP_temperature;BMP_pressure;BME280_temperature;BME280_humidity;BME280_pressure;Samples;Min_cycle;Max_cycle;Signal;HPM_P1;HPM_P2
2023/02/16 00:00:32;;;;;;;3.13;0.90;;;;;;;7.76;90.66;100559.81;5087691;28;20044;-47
2023/02/16 00:02:59;;;;;;;7.88;2.88;;;;;;;7.77;90.77;100552.34;5088634;28;20155;-44
2023/02/16 00:05:32;;;;;;;2.17;1.00;;;;;;;7.79;90.91;100556.38;5088580;28;20093;-46
2023/02/16 00:08:00;;;;;;;6.63;0.82;;;;;;;7.81;91.00;100551.34;5088622;28;20052;-47
2023/02/16 00:10:34;;;;;;;2.00;1.13;;;;;;;7.82;91.17;100549.41;5091290;28;20101;-46
2023/02/16 00:15:47;;;;;;;2.30;1.27;;;;;;;7.81;91.38;100526.53;5088300;28;20146;-46
2023/02/16 00:18:19;;;;;;;4.10;1.13;;;;;;;7.82;91.58;100532.88;5088596;28;20070;-45
2023/02/16 00:20:47;;;;;;;4.35;1.90;;;;;;;7.83;91.76;100524.28;5070563;28;20127;-46
2023/02/16 00:23:14;;;;;;;5.13;1.60;;;;;;;7.86;92.08;100509.81;5088985;28;20044;-45
2023/02/16 00:25:41;;;;;;;3.58;1.55;;;;;;;7.88;92.10;100513.06;5087661;28;20071;-49
2023/02/16 00:28:18;;;;;;;3.67;1.30;;;;;;;7.91;92.32;100515.16;5087833;28;20044;-47
2023/02/16 00:30:45;;;;;;;2.50;0.85;;;;;;;7.92;92.30;100515.94;5087984;28;20107;-45
2023/02/16 00:33:17;;;;;;;2.13;0.70;;;;;;;7.93;92.64;100512.88;5089767;28;20055;-49
2023/02/16 00:35:44;;;;;;;;;;;;;;;7.95;92.80;100515.28;5108695;28;20072;-45
2023/02/16 00:38:12;;;;;;;1.77;0.90;;;;;;;7.95;92.53;100509.78;5098224;28;19947;-45
2023/02/16 00:40:40;;;;;;;1.10;0.80;;;;;;;7.94;92.69;100508.97;5088953;28;20114;-45
2023/02/16 00:43:20;;;;;;;0.85;0.70;;;;;;;7.95;92.94;100502.31;5088711;28;20379;-47
2023/02/16 00:45:47;;;;;;;1.67;1.00;;;;;;;7.96;93.10;100506.69;5092380;28;20044;-45
2023/02/16 00:48:14;;;;;;;1.13;0.50;;;;;;;7.96;93.11;100500.38;5092021;28;20052;-46
2023/02/16 00:50:40;;;;;;;1.45;0.60;;;;;;;7.97;93.44;100500.03;5092047;28;20064;-45
2023/02/16 00:53:07;;;;;;;2.58;2.05;;;;;;;7.97;93.53;100497.28;5092119;28;20489;-49
2023/02/16 00:55:35;;;;;;;0.57;0.50;;;;;;;7.98;93.57;100501.66;5074036;28;20127;-46
2023/02/16 00:58:25;;;;;;;1.90;0.77;;;;;;;8.01;93.88;100496.59;5092478;28;20123;-48
2023/02/16 01:01:19;;;;;;;2.10;0.90;;;;;;;8.02;93.94;100478.94;5091659;28;20134;-46
2023/02/16 01:03:47;;;;;;;1.15;0.77;;;;;;;7.98;94.04;100482.34;5072170;28;20067;-45
2023/02/16 01:11:57;;;;;;;1.58;0.80;;;;;;;8.04;94.39;100479.41;5089028;28;20444;-45
2023/02/16 01:14:24;;;;;;;2.70;0.60;;;;;;;8.06;94.47;100466.09;5101667;28;20135;-44
2023/02/16 01:16:52;;;;;;;1.23;0.68;;;;;;;8.05;94.59;100470.78;5091559;28;20086;-46
2023/02/16 01:19:20;;;;;;;3.35;1.00;;;;;;;8.07;94.76;100471.28;5091715;28;20036;-46
2023/02/16 01:21:46;;;;;;;1.80;0.70;;;;;;;8.09;94.87;100476.44;5091817;28;20051;-49
2023/02/16 01:24:13;;;;;;;1.75;0.80;;;;;;;8.11;95.07;100468.63;5090013;28;20076;-48
2023/02/16 01:26:47;;;;;;;1.08;0.98;;;;;;;8.11;95.08;100474.16;5084843;28;20143;-45
2023/02/16 01:29:17;;;;;;;0.60;0.52;;;;;;;8.15;95.30;100477.88;5071357;28;20102;-45
2023/02/16 01:31:44;;;;;;;2.78;0.85;;;;;;;8.16;95.42;100471.19;5085905;28;20041;-45
2023/02/16 01:34:12;;;;;;;1.08;0.40;;;;;;;8.18;95.47;100474.44;5101411;28;20058;-47
2023/02/16 01:36:43;;;;;;;0.20;0.20;;;;;;;8.21;95.63;100452.50;5111651;28;20121;-46
2023/02/16 01:39:17;;;;;;;0.20;0.20;;;;;;;8.28;95.93;100460.28;5112170;28;20146;-45
2023/02/16 01:41:53;;;;;;;0.57;0.30;;;;;;;8.34;96.01;100458.94;5111243;28;20505;-44
2023/02/16 01:44:24;;;;;;;0.35;0.10;;;;;;;8.40;96.00;100457.56;5111627;28;20052;-45
2023/02/16 01:46:57;;;;;;;0.10;0.10;;;;;;;8.43;96.14;100460.47;5111627;28;20766;-45
2023/02/16 01:49:24;;;;;;;0.10;0.10;;;;;;;8.46;96.16;100454.28;5092410;28;20482;-46
2023/02/16 01:51:51;;;;;;;0.20;0.10;;;;;;;8.49;96.36;100453.63;5091326;28;20127;-45
2023/02/16 01:54:31;;;;;;;0.30;0.20;;;;;;;8.51;96.42;100453.25;5090925;28;20056;-53
2023/02/16 01:57:26;;;;;;;1.23;0.10;;;;;;;8.52;96.58;100454.88;5079402;28;20055;-45
2023/02/16 01:59:52;;;;;;;0.10;0.10;;;;;;;8.53;96.71;100450.97;5082915;28;20059;-48
2023/02/16 02:02:38;;;;;;;0.00;0.00;;;;;;;8.54;96.92;100449.81;5090482;28;20063;-44
2023/02/16 02:05:36;;;;;;;0.20;0.20;;;;;;;8.59;97.05;100457.91;5088442;28;20492;-46
2023/02/16 02:08:08;;;;;;;0.22;0.10;;;;;;;8.62;97.15;100453.66;5084588;28;20044;-46
2023/02/16 02:11:15;;;;;;;0.10;0.10;;;;;;;8.66;97.29;100452.63;5091573;28;20055;-45
2023/02/16 02:13:52;;;;;;;2.88;0.50;;;;;;;8.66;97.33;100452.63;5090151;28;20047;-45
2023/02/16 02:16:20;;;;;;;0.35;0.10;;;;;;;8.70;97.38;100442.53;5090048;28;20403;-49
2023/02/16 02:18:48;;;;;;;0.20;0.20;;;;;;;8.72;97.52;100440.22;5072373;28;20511;-45
2023/02/16 02:24:25;;;;;;;0.35;0.20;;;;;;;8.73;98.02;100441.03;5086933;28;20486;-44
2023/02/16 02:27:00;;;;;;;1.25;0.20;;;;;;;8.75;98.29;100439.56;5090492;28;20044;-46
2023/02/16 02:29:58;;;;;;;1.92;0.15;;;;;;;8.76;98.37;100432.91;5076865;28;20401;-46
2023/02/16 02:32:51;;;;;;;0.10;0.10;;;;;;;8.78;98.50;100436.13;5090185;28;20084;-46
2023/02/16 02:35:43;;;;;;;0.15;0.15;;;;;;;8.77;98.56;100440.03;5100678;28;20044;-48
2023/02/16 02:38:16;;;;;;;0.90;0.85;;;;;;;8.78;98.56;100433.38;5090388;28;20043;-48
2023/02/16 02:44:08;;;;;;;0.43;0.38;;;;;;;8.81;98.95;100421.66;5083552;28;20051;-44
2023/02/16 02:46:37;;;;;;;0.32;0.32;;;;;;;8.82;99.14;100423.22;5089868;28;20147;-45
2023/02/16 02:49:04;;;;;;;0.70;0.28;;;;;;;8.82;99.39;100414.16;5089903;28;20054;-45
2023/02/16 02:51:32;;;;;;;0.75;0.30;;;;;;;8.81;99.56;100418.88;5089312;28;20048;-45
2023/02/16 03:02:57;;;;;;;0.65;0.45;;;;;;;8.83;100.00;100430.38;4966759;23;20061;-50
2023/02/16 03:05:28;;;;;;;0.73;0.50;;;;;;;8.82;100.00;100436.22;5028559;28;20057;-46
2023/02/16 03:08:05;;;;;;;1.73;0.65;;;;;;;8.84;100.00;100453.28;5029080;28;20095;-46
2023/02/16 03:13:29;;;;;;;0.60;0.60;;;;;;;8.91;100.00;100462.63;5010923;28;20125;-47
2023/02/16 03:15:57;;;;;;;1.00;0.77;;;;;;;8.92;100.00;100458.69;5009769;28;20108;-46
2023/02/16 03:29:38;;;;;;;3.60;0.90;;;;;;;9.04;100.00;100460.69;5010107;28;20323;-46
2023/02/16 03:32:05;;;;;;;0.95;0.60;;;;;;;9.05;100.00;100468.59;5009708;28;20084;-46
2023/02/16 03:34:35;;;;;;;1.55;0.77;;;;;;;9.09;100.00;100474.25;5034047;28;20409;-46
2023/02/16 03:37:03;;;;;;;0.80;0.80;;;;;;;9.11;100.00;100481.06;5048902;28;20128;-47
2023/02/16 03:39:31;;;;;;;1.05;0.90;;;;;;;9.13;100.00;100459.44;5048701;28;20102;-46
2023/02/16 03:41:58;;;;;;;0.85;0.85;;;;;;;9.14;100.00;100457.47;5048812;28;20045;-52
2023/02/16 03:44:24;;;;;;;0.77;0.77;;;;;;;9.15;100.00;100454.38;5049126;28;20601;-46
2023/02/16 03:46:51;;;;;;;0.88;0.88;;;;;;;9.17;100.00;100443.78;5036602;28;20350;-50
2023/02/16 03:49:19;;;;;;;1.85;1.05;;;;;;;9.21;100.00;100440.34;5009229;28;20042;-46
2023/02/16 03:51:46;;;;;;;1.48;1.10;;;;;;;9.21;100.00;100435.63;5009403;28;20045;-53
2023/02/16 03:54:13;;;;;;;1.67;1.20;;;;;;;9.23;100.00;100427.81;5008848;28;20062;-46
2023/02/16 03:56:40;;;;;;;2.00;0.93;;;;;;;9.24;100.00;100425.84;5009243;28;20045;-49
2023/02/16 03:59:07;;;;;;;5.93;2.22;;;;;;;9.25;100.00;100438.50;5009077;28;20049;-47
2023/02/16 04:01:34;;;;;;;1.38;1.20;;;;;;;9.24;100.00;100440.44;5009048;28;20073;-46
2023/02/16 04:04:00;;;;;;;2.50;1.20;;;;;;;9.26;100.00;100437.38;5015904;28;20087;-52
2023/02/16 04:06:27;;;;;;;1.73;1.30;;;;;;;9.26;100.00;100437.38;5028712;28;20509;-46
2023/02/16 04:08:54;;;;;;;2.38;1.25;;;;;;;9.27;100.00;100436.19;5028430;28;20791;-46
2023/02/16 04:14:07;;;;;;;0.95;0.85;;;;;;;9.26;100.00;100442.88;5048516;28;20045;-45
2023/02/16 04:16:33;;;;;;;2.88;1.35;;;;;;;9.27;100.00;100445.28;5048743;28;20115;-47
2023/02/16 04:19:00;;;;;;;3.03;1.30;;;;;;;9.31;100.00;100445.44;5049234;28;20052;-49
2023/02/16 04:21:27;;;;;;;1.67;1.02;;;;;;;9.32;100.00;100431.25;5030373;28;20045;-48
2023/02/16 04:23:54;;;;;;;1.50;1.02;;;;;;;9.33;100.00;100426.53;5012800;28;20077;-49
2023/02/16 04:26:20;;;;;;;1.42;1.10;;;;;;;9.34;100.00;100433.69;5021717;28;20045;-45
2023/02/16 04:28:48;;;;;;;1.13;1.02;;;;;;;9.35;100.00;100449.91;5032363;28;21036;-46
2023/02/16 04:31:15;;;;;;;2.05;1.23;;;;;;;9.36;100.00;100443.25;5030849;28;20132;-49
2023/02/16 04:33:41;;;;;;;1.23;0.95;;;;;;;9.38;100.00;100445.66;5037561;28;20479;-50
2023/02/16 04:36:09;;;;;;;1.65;0.60;;;;;;;9.41;100.00;100447.72;5034851;28;20049;-45
2023/02/16 04:38:35;;;;;;;3.63;1.10;;;;;;;9.44;100.00;100455.34;5031264;28;20041;-47
2023/02/16 04:41:02;;;;;;;1.73;0.80;;;;;;;9.46;100.00;100453.84;5031894;28;20487;-47
2023/02/16 04:43:29;;;;;;;1.35;1.20;;;;;;;9.48;100.00;100450.72;5031843;28;20488;-46
2023/02/16 04:45:56;;;;;;;1.15;0.95;;;;;;;9.50;100.00;100467.78;5031995;28;20842;-45
2023/02/16 04:48:23;;;;;;;2.70;1.60;;;;;;;9.49;100.00;100464.19;5031882;28;20057;-46
2023/02/16 04:50:50;;;;;;;1.45;1.10;;;;;;;9.50;100.00;100454.78;5032275;28;20069;-46
2023/02/16 04:53:17;;;;;;;3.17;1.50;;;;;;;9.52;100.00;100463.53;5032096;28;20041;-46
2023/02/16 04:55:47;;;;;;;2.33;1.17;;;;;;;9.54;100.00;100475.03;5031009;28;20522;-48
2023/02/16 04:58:14;;;;;;;2.13;1.30;;;;;;;9.54;100.00;100476.97;5031796;28;20107;-49
2023/02/16 05:00:41;;;;;;;1.83;1.00;;;;;;;9.54;100.00;100477.78;5031520;28;20054;-46
2023/02/16 05:03:08;;;;;;;1.58;1.20;;;;;;;9.55;100.00;100479.41;5031649;28;20550;-48
2023/02/16 05:05:35;;;;;;;2.28;1.15;;;;;;;9.55;100.00;100475.84;5031413;28;20410;-45
2023/02/16 05:08:02;;;;;;;1.73;1.23;;;;;;;9.56;100.00;100480.19;5031528;28;20122;-47
2023/02/16 05:10:29;;;;;;;1.90;0.90;;;;;;;9.55;100.00;100475.84;5034504;28;20095;-48
2023/02/16 05:15:41;;;;;;;0.80;0.80;;;;;;;9.54;100.00;100488.84;5031789;28;20076;-50
2023/02/16 05:18:08;;;;;;;1.08;0.80;;;;;;;9.55;100.00;100498.75;5031325;28;20060;-46
2023/02/16 05:23:20;;;;;;;2.30;0.80;;;;;;;9.53;100.00;100501.03;5031485;28;20080;-45
2023/02/16 05:25:47;;;;;;;0.60;0.60;;;;;;;9.54;100.00;100493.56;5031124;28;20391;-46
2023/02/16 05:28:14;;;;;;;0.88;0.73;;;;;;;9.53;100.00;100495.50;5012567;28;20525;-46
2023/02/16 05:30:41;;;;;;;0.60;0.60;;;;;;;9.53;100.00;100483.69;5030544;28;20384;-47
2023/02/16 05:33:07;;;;;;;1.17;1.08;;;;;;;9.52;100.00;100479.28;5027649;28;20070;-46
2023/02/16 05:35:34;;;;;;;1.08;1.00;;;;;;;9.51;100.00;100484.00;5016959;28;20152;-45
2023/02/16 05:38:01;;;;;;;0.70;0.70;;;;;;;9.52;100.00;100502.22;5031263;28;20048;-46
2023/02/16 05:40:28;;;;;;;2.58;1.10;;;;;;;9.53;100.00;100519.59;5030900;28;20045;-46
2023/02/16 05:42:54;;;;;;;2.42;0.90;;;;;;;9.52;100.00;100521.56;5030701;28;20499;-46
2023/02/16 05:45:21;;;;;;;2.13;1.08;;;;;;;9.52;100.00;100517.97;5029672;28;20084;-48
2023/02/16 05:47:48;;;;;;;1.95;1.58;;;;;;;9.52;100.00;100518.78;5031179;28;20037;-48
2023/02/16 05:50:15;;;;;;;2.13;1.20;;;;;;;9.52;100.00;100526.25;5031189;28;20069;-46
2023/02/16 05:52:42;;;;;;;2.42;1.50;;;;;;;9.51;100.00;100532.94;5030954;28;20065;-46
2023/02/16 05:55:08;;;;;;;2.63;1.38;;;;;;;9.50;100.00;100543.19;5030532;28;20037;-45
2023/02/16 05:57:35;;;;;;;4.45;1.73;;;;;;;9.50;100.00;100540.44;5030527;28;20045;-45
2023/02/16 06:00:04;;;;;;;2.00;1.45;;;;;;;9.51;100.00;100543.97;5030341;28;20041;-45
2023/02/16 06:02:30;;;;;;;4.18;1.85;;;;;;;9.52;100.00;100551.13;5029342;28;20578;-46
2023/02/16 06:04:57;;;;;;;2.72;1.52;;;;;;;9.52;100.00;100562.19;5030144;28;20079;-47
2023/02/16 06:07:24;;;;;;;1.70;1.27;;;;;;;9.51;100.00;100577.16;5030189;28;20095;-46
2023/02/16 06:09:51;;;;;;;1.40;1.08;;;;;;;9.52;100.00;100571.28;5029977;28;20442;-46
2023/02/16 06:12:17;;;;;;;2.03;1.40;;;;;;;9.52;100.00;100574.06;5037339;28;20055;-46
2023/02/16 06:14:44;;;;;;;2.47;1.60;;;;;;;9.52;100.00;100589.81;5029994;28;20144;-46
2023/02/16 06:17:11;;;;;;;1.50;0.88;;;;;;;9.52;100.00;100584.31;5030418;28;20135;-46
2023/02/16 06:19:38;;;;;;;1.42;1.20;;;;;;;9.51;100.00;100582.69;5029006;28;20049;-49
2023/02/16 06:22:04;;;;;;;3.55;1.05;;;;;;;9.51;100.00;100572.44;5030139;28;20067;-46
2023/02/16 06:24:31;;;;;;;1.30;1.20;;;;;;;9.52;100.00;100573.25;5029991;28;20045;-46
2023/02/16 06:26:58;;;;;;;1.50;1.10;;;;;;;9.52;100.00;100587.06;5029976;28;20133;-48
2023/02/16 06:29:25;;;;;;;1.13;0.77;;;;;;;9.51;100.00;100586.25;5029816;28;20042;-46
2023/02/16 06:31:52;;;;;;;1.02;0.75;;;;;;;9.52;100.00;100578.78;5029885;28;20498;-47
2023/02/16 06:34:19;;;;;;;1.33;0.80;;;;;;;9.51;100.00;100577.97;5030906;28;20045;-47
2023/02/16 06:36:46;;;;;;;1.52;0.63;;;;;;;9.49;100.00;100571.16;5028892;28;20148;-46
2023/02/16 06:39:12;;;;;;;0.98;0.82;;;;;;;9.49;100.00;100593.28;5029417;28;20080;-47
2023/02/16 06:41:39;;;;;;;2.42;1.20;;;;;;;9.47;100.00;100590.88;5029247;28;20038;-51
2023/02/16 06:44:12;;;;;;;2.00;0.95;;;;;;;9.46;100.00;100586.47;5029348;28;20095;-47
2023/02/16 06:46:40;;;;;;;1.67;1.30;;;;;;;9.47;100.00;100601.09;5011946;28;20046;-46
2023/02/16 06:49:15;;;;;;;1.13;1.00;;;;;;;9.47;100.00;100593.63;5029786;28;20040;-46
2023/02/16 06:51:43;;;;;;;1.83;1.45;;;;;;;9.46;100.00;100600.28;5029409;28;20046;-46
2023/02/16 06:54:10;;;;;;;1.77;1.55;;;;;;;9.47;100.00;100603.88;5021510;28;20049;-46
2023/02/16 06:56:36;;;;;;;2.97;1.77;;;;;;;9.46;100.00;100597.53;5024316;28;20112;-47
2023/02/16 06:59:04;;;;;;;4.75;1.98;;;;;;;9.46;100.00;100592.00;5029651;28;20057;-46
2023/02/16 07:01:31;;;;;;;3.45;2.45;;;;;;;9.47;100.00;100603.88;5010829;28;20060;-48
2023/02/16 07:03:58;;;;;;;5.05;2.83;;;;;;;9.48;100.00;100605.47;5029464;28;20069;-46
2023/02/16 07:06:28;;;;;;;4.05;2.72;;;;;;;9.47;100.00;100606.63;5029132;28;20136;-47
2023/02/16 07:08:55;;;;;;;6.57;3.28;;;;;;;9.48;100.00;100611.00;5029036;28;20064;-46
2023/02/16 07:11:22;;;;;;;4.25;2.92;;;;;;;9.47;100.00;100612.16;5021980;28;20438;-46
2023/02/16 07:13:49;;;;;;;4.60;3.30;;;;;;;9.47;100.00;100614.91;5029213;28;20506;-47
2023/02/16 07:16:16;;;;;;;5.25;3.00;;;;;;;9.48;100.00;100616.50;5029244;28;20045;-47
2023/02/16 07:18:44;;;;;;;5.95;3.28;;;;;;;9.46;100.00;100624.34;5027792;28;20403;-46
2023/02/16 07:21:12;;;;;;;9.02;4.10;;;;;;;9.48;100.00;100622.03;5028815;28;20151;-48
2023/02/16 07:23:38;;;;;;;5.40;3.00;;;;;;;9.47;100.00;100631.50;5028792;28;20045;-46
2023/02/16 07:26:05;;;;;;;5.25;3.20;;;;;;;9.48;100.00;100630.34;5028588;28;20045;-51
2023/02/16 07:28:32;;;;;;;4.28;2.70;;;;;;;9.47;100.00;100628.72;5016599;28;20056;-48
2023/02/16 07:31:05;;;;;;;4.05;3.30;;;;;;;9.46;100.00;100636.22;5026874;28;20052;-47
2023/02/16 07:33:33;;;;;;;4.03;2.33;;;;;;;9.46;100.00;100643.69;5033050;28;20041;-49
2023/02/16 07:35:59;;;;;;;2.95;2.03;;;;;;;9.44;100.00;100646.00;5022961;28;20488;-47
2023/02/16 07:38:26;;;;;;;2.38;1.65;;;;;;;9.43;100.00;100652.66;5021348;28;20132;-49
2023/02/16 07:40:53;;;;;;;2.05;1.48;;;;;;;9.42;100.00;100651.88;5027541;28;20049;-47
2023/02/16 07:43:20;;;;;;;1.10;1.00;;;;;;;9.43;100.00;100647.13;5021683;28;20053;-46
2023/02/16 07:45:48;;;;;;;2.17;0.90;;;;;;;9.41;100.00;100643.91;5019974;28;20054;-46
2023/02/16 07:48:16;;;;;;;1.70;0.90;;;;;;;9.40;100.00;100634.00;5023481;28;21017;-46
2023/02/16 07:50:43;;;;;;;2.15;1.05;;;;;;;9.38;100.00;100641.81;5028457;28;20557;-46
2023/02/16 07:53:09;;;;;;;1.15;1.00;;;;;;;9.37;100.00;100642.97;5027895;28;20075;-49
2023/02/16 07:55:43;;;;;;;1.90;1.02;;;;;;;9.36;100.00;100642.16;5028007;28;20045;-46
2023/02/16 07:58:10;;;;;;;2.67;1.37;;;;;;;9.36;100.00;100658.75;5027999;28;20099;-46
2023/02/16 08:00:37;;;;;;;1.33;0.90;;;;;;;9.36;100.00;100663.44;5028679;28;20100;-48
2023/02/16 08:03:04;;;;;;;2.45;1.00;;;;;;;9.36;100.00;100674.50;5012297;28;20053;-48
2023/02/16 08:05:33;;;;;;;7.32;0.75;;;;;;;9.37;100.00;100684.44;5017303;28;20049;-46
2023/02/16 08:08:00;;;;;;;0.65;0.65;;;;;;;9.35;100.00;100687.50;5028809;28;20038;-47
2023/02/16 08:10:27;;;;;;;1.65;0.40;;;;;;;9.35;100.00;100689.47;5031298;28;20079;-47
2023/02/16 08:12:54;;;;;;;1.10;0.57;;;;;;;9.36;100.00;100699.38;5032206;28;20288;-47
2023/02/16 08:15:21;;;;;;;0.60;0.60;;;;;;;9.35;100.00;100703.28;5018476;28;20034;-46
2023/02/16 08:17:48;;;;;;;0.60;0.55;;;;;;;9.34;100.00;100705.25;5016716;28;20111;-50
2023/02/16 08:20:15;;;;;;;1.45;0.93;;;;;;;9.35;100.00;100717.09;5014893;28;20447;-52
2023/02/16 08:22:42;;;;;;;1.10;0.98;;;;;;;9.34;100.00;100726.53;5017579;28;20049;-47
2023/02/16 08:25:10;;;;;;;1.30;1.05;;;;;;;9.32;100.00;100732.38;5011914;28;20741;-46
2023/02/16 08:27:37;;;;;;;2.08;1.23;;;;;;;9.33;100.00;100735.97;5016452;28;21236;-47
2023/02/16 08:30:04;;;;;;;2.45;1.50;;;;;;;9.32;100.00;100739.88;5023014;28;20112;-47
2023/02/16 08:32:31;;;;;;;2.40;1.60;;;;;;;9.31;100.00;100749.31;5027448;28;20072;-47
2023/02/16 08:34:58;;;;;;;1.83;1.33;;;;;;;9.31;100.00;100750.13;5030511;28;20050;-49
2023/02/16 08:37:25;;;;;;;1.75;1.15;;;;;;;9.29;100.00;100762.66;5025229;28;20081;-51
2023/02/16 08:39:52;;;;;;;1.33;1.17;;;;;;;9.27;100.00;100764.94;5024942;28;20046;-49
2023/02/16 08:42:20;;;;;;;1.85;1.25;;;;;;;9.25;100.00;100775.50;5025140;28;20494;-47
2023/02/16 08:44:46;;;;;;;1.85;1.58;;;;;;;9.22;100.00;100768.69;5010365;28;20042;-48
2023/02/16 08:47:15;;;;;;;2.20;2.00;;;;;;;9.22;100.00;100763.19;5025510;28;20049;-47
2023/02/16 08:49:43;;;;;;;1.67;1.10;;;;;;;9.19;100.00;100764.66;5026297;28;20060;-47
2023/02/16 08:52:11;;;;;;;2.78;1.90;;;;;;;9.19;100.00;100769.38;5027236;28;20049;-46
2023/02/16 08:54:38;;;;;;;3.92;2.50;;;;;;;9.19;100.00;100770.19;5019776;28;20049;-47
2023/02/16 08:57:05;;;;;;;7.97;3.80;;;;;;;9.19;100.00;100772.94;5027760;28;20081;-48
2023/02/16 08:59:33;;;;;;;5.72;2.92;;;;;;;9.20;100.00;100765.47;5027501;28;20049;-46
2023/02/16 09:02:00;;;;;;;6.53;3.33;;;;;;;9.19;100.00;100764.66;5027770;28;20460;-52
2023/02/16 09:04:28;;;;;;;5.90;3.55;;;;;;;9.21;100.00;100774.56;5027480;28;20049;-47
2023/02/16 09:06:57;;;;;;;5.18;3.50;;;;;;;9.21;100.00;100771.81;5031378;28;20510;-47
2023/02/16 09:09:25;;;;;;;4.78;3.38;;;;;;;9.22;100.00;100781.69;5030323;28;20491;-46
2023/02/16 09:11:52;;;;;;;5.13;3.08;;;;;;;9.22;100.00;100778.94;5034628;28;20499;-47
2023/02/16 09:14:20;;;;;;;4.85;2.72;;;;;;;9.25;100.00;100775.50;5031518;28;20052;-45
2023/02/16 09:16:47;;;;;;;4.00;2.90;;;;;;;9.23;100.00;100792.44;5030941;28;20049;-46
2023/02/16 09:19:17;;;;;;;7.03;4.45;;;;;;;9.22;100.00;100784.47;5030984;28;20045;-46
2023/02/16 09:21:46;;;;;;;9.70;4.30;;;;;;;9.19;100.00;100797.81;5029896;28;20057;-46
2023/02/16 09:24:14;;;;;;;9.15;5.10;;;;;;;9.18;100.00;100801.72;5031054;28;20557;-47
2023/02/16 09:26:41;;;;;;;7.10;5.00;;;;;;;9.18;100.00;100800.91;5002098;28;20534;-49
2023/02/16 09:29:11;;;;;;;6.75;3.78;;;;;;;9.19;100.00;100794.22;5030327;28;20045;-48
2023/02/16 09:31:39;;;;;;;5.75;3.47;;;;;;;9.21;100.00;100804.97;5031077;28;20045;-47
2023/02/16 09:34:19;;;;;;;7.07;4.07;;;;;;;9.20;100.00;100798.63;5032592;28;20400;-47
2023/02/16 09:36:46;;;;;;;7.93;5.07;;;;;;;9.19;100.00;100803.34;5029101;28;20044;-47
2023/02/16 09:39:15;;;;;;;7.80;4.38;;;;;;;9.18;100.00;100804.50;5030454;28;20458;-46
2023/02/16 09:42:04;;;;;;;7.57;4.18;;;;;;;9.18;100.00;100804.50;5030687;28;20041;-47
2023/02/16 09:44:49;;;;;;;5.38;3.70;;;;;;;9.18;100.00;100804.50;5022103;28;20563;-47
2023/02/16 09:47:24;;;;;;;4.60;2.97;;;;;;;9.22;100.00;100809.31;5030642;28;20073;-47
2023/02/16 09:49:55;;;;;;;6.97;3.88;;;;;;;9.21;100.00;100813.25;5030555;28;20499;-47
2023/02/16 09:52:36;;;;;;;6.65;4.18;;;;;;;9.21;100.00;100835.34;5031007;28;20300;-52
2023/02/16 09:55:13;;;;;;;5.28;3.47;;;;;;;9.19;100.00;100836.47;5030486;28;20099;-47
2023/02/16 09:57:58;;;;;;;4.57;3.38;;;;;;;9.21;100.00;100838.09;5030750;28;20053;-52
2023/02/16 10:00:52;;;;;;;5.50;3.92;;;;;;;9.22;100.00;100843.28;5027616;28;20050;-48
2023/02/16 10:03:25;;;;;;;8.50;5.07;;;;;;;9.23;100.00;100846.88;5027630;28;20140;-47
2023/02/16 10:06:15;;;;;;;7.30;4.18;;;;;;;9.24;100.00;100865.06;5030316;28;20136;-49
2023/02/16 10:09:03;;;;;;;5.65;3.30;;;;;;;9.21;100.00;100872.06;5018800;28;20099;-47
2023/02/16 10:11:47;;;;;;;3.58;2.53;;;;;;;9.21;100.00;100871.25;5036811;28;20045;-47
2023/02/16 10:14:40;;;;;;;2.90;1.75;;;;;;;9.23;100.00;100886.34;5030007;28;20081;-49
2023/02/16 10:17:33;;;;;;;2.30;1.38;;;;;;;9.21;100.00;100876.78;5028629;28;20091;-48
2023/02/16 10:20:15;;;;;;;1.38;1.00;;;;;;;9.19;100.00;100886.19;5018186;28;20050;-46
2023/02/16 10:23:09;;;;;;;1.70;1.23;;;;;;;9.21;100.00;100902.47;5030052;28;20045;-47
2023/02/16 10:25:47;;;;;;;2.00;1.25;;;;;;;9.18;100.00;100903.94;5029635;28;20052;-46
2023/02/16 10:28:17;;;;;;;3.10;1.63;;;;;;;9.16;100.00;100906.19;5030026;28;20041;-50
2023/02/16 10:31:04;;;;;;;2.97;2.00;;;;;;;9.16;100.00;100913.66;5028866;28;20042;-47
2023/02/16 10:33:37;;;;;;;4.78;1.98;;;;;;;9.11;100.00;100898.09;5034338;28;20044;-48
2023/02/16 10:36:27;;;;;;;5.05;2.00;;;;;;;9.10;100.00;100899.25;5017635;28;20053;-46
2023/02/16 10:39:06;;;;;;;5.63;2.72;;;;;;;9.11;100.00;100897.28;5012165;28;20046;-46
2023/02/16 10:41:41;;;;;;;5.88;2.75;;;;;;;9.11;100.00;100911.91;5030160;28;20152;-47
2023/02/16 10:44:23;;;;;;;4.47;2.33;;;;;;;9.10;100.00;100910.31;5029295;28;20128;-47
2023/02/16 10:47:03;;;;;;;5.73;4.00;;;;;;;9.09;100.00;100905.91;5029400;28;20045;-47
2023/02/16 10:49:31;;;;;;;2.97;1.75;;;;;;;9.09;100.00;100914.19;5024540;28;20042;-47
2023/02/16 10:52:02;;;;;;;5.72;2.22;;;;;;;9.08;100.00;100915.31;5028540;28;20566;-46
2023/02/16 10:54:31;;;;;;;3.35;1.70;;;;;;;9.08;100.00;100925.59;5029526;28;20498;-48
2023/02/16 10:57:03;;;;;;;3.83;2.03;;;;;;;9.07;100.00;100926.72;5029393;28;20045;-46
2023/02/16 10:59:29;;;;;;;3.65;2.00;;;;;;;9.04;100.00;100917.13;5029673;28;20051;-47
2023/02/16 11:01:59;;;;;;;3.45;2.08;;;;;;;9.03;100.00;100909.16;5029107;28;20132;-49
2023/02/16 11:04:41;;;;;;;4.07;1.85;;;;;;;9.06;100.00;100909.31;5022463;28;20046;-47
2023/02/16 11:07:10;;;;;;;;;;;;;;;9.09;100.00;100903.16;5018549;28;20064;-44
2023/02/16 11:09:40;;;;;;;3.75;2.22;;;;;;;9.07;100.00;100896.34;5028218;28;20026;-48
2023/02/16 11:12:31;;;;;;;3.38;2.15;;;;;;;9.07;100.00;100894.38;5034941;28;20037;-47
2023/02/16 11:15:20;;;;;;;6.65;3.20;;;;;;;9.06;100.00;100901.03;5019951;28;20115;-56
2023/02/16 11:17:47;;;;;;;4.78;2.83;;;;;;;9.10;100.00;100898.44;5029078;28;20120;-48
2023/02/16 11:20:43;;;;;;;6.65;3.40;;;;;;;9.15;100.00;100904.59;5029158;28;20399;-49
2023/02/16 11:23:24;;;;;;;7.03;4.40;;;;;;;9.21;100.00;100901.63;5006290;28;20132;-46
2023/02/16 11:25:59;;;;;;;7.25;4.05;;;;;;;9.23;100.00;100907.63;5028128;28;20483;-48
2023/02/16 11:28:28;;;;;;;5.30;3.58;;;;;;;9.26;100.00;100907.78;5028478;28;20041;-47
2023/02/16 11:30:59;;;;;;;;;;;;;;;9.28;100.00;100901.91;5029193;28;20054;-49
2023/02/16 11:33:27;;;;;;;6.90;4.93;;;;;;;9.33;100.00;100913.59;5032099;28;19929;-47
2023/02/16 11:35:55;;;;;;;9.38;5.15;;;;;;;9.38;100.00;100920.88;5020411;28;20136;-47
2023/02/16 11:38:26;;;;;;;5.93;4.90;;;;;;;9.43;100.00;100923.44;5028680;28;20046;-47
2023/02/16 11:40:55;;;;;;;4.05;3.45;;;;;;;9.48;100.00;100914.97;5028758;28;20522;-47
2023/02/16 11:43:27;;;;;;;4.38;3.10;;;;;;;9.53;100.00;100917.56;5028004;28;20479;-46
2023/02/16 11:46:16;;;;;;;4.53;3.80;;;;;;;9.57;100.00;100910.22;5016006;28;20088;-48
2023/02/16 11:48:43;;;;;;;5.97;3.95;;;;;;;9.63;100.00;100912.47;5027073;28;20561;-48
2023/02/16 11:51:18;;;;;;;5.38;4.18;;;;;;;9.65;100.00;100920.41;5028883;28;20149;-48
2023/02/16 11:53:45;;;;;;;4.90;2.67;;;;;;;9.67;100.00;100918.94;5028497;28;20045;-48
2023/02/16 11:56:23;;;;;;;2.40;1.35;;;;;;;9.73;100.00;100917.59;5028747;28;20057;-47
2023/02/16 11:59:06;;;;;;;1.15;1.02;;;;;;;9.76;100.00;100908.63;5028215;28;20395;-47
2023/02/16 12:01:59;;;;;;;1.17;0.88;;;;;;;9.81;100.00;100893.78;5027703;28;20057;-47
2023/02/16 12:04:56;;;;;;;0.40;0.40;;;;;;;9.89;100.00;100900.41;5028179;28;20091;-46
2023/02/16 12:07:36;;;;;;;1.92;0.50;;;;;;;9.96;100.00;100871.06;5018464;28;20057;-47
2023/02/16 12:10:12;;;;;;;1.25;0.70;;;;;;;10.00;100.00;100877.56;5028179;28;20054;-47
2023/02/16 12:12:49;;;;;;;0.85;0.75;;;;;;;10.04;100.00;100878.47;5021943;28;20054;-50
2023/02/16 12:15:42;;;;;;;1.38;0.88;;;;;;;10.04;100.00;100884.00;5028308;28;20157;-46
2023/02/16 12:18:30;;;;;;;0.47;0.47;;;;;;;10.02;100.00;100879.97;5027386;28;20069;-47
2023/02/16 12:21:09;;;;;;;1.85;0.70;;;;;;;10.04;100.00;100866.59;5028234;28;20056;-46
2023/02/16 12:23:41;;;;;;;0.73;0.55;;;;;;;10.15;100.00;100867.84;5028181;28;20136;-46
2023/02/16 12:26:33;;;;;;;0.85;0.85;;;;;;;10.21;100.00;100861.78;5028190;28;20053;-46
2023/02/16 12:29:15;;;;;;;0.65;0.43;;;;;;;10.20;100.00;100865.69;5028474;28;20454;-48
2023/02/16 12:32:06;;;;;;;1.15;0.60;;;;;;;10.19;100.00;100861.28;5026514;28;20044;-50